Time;durP1;ratioP1;P1;durP2;ratioP2;P2;SDS_P1;SDS_P2;PMS_P1;PMS_P2;Temp;Humidity;BMP_temperature;BMP_pressure;BME280_temperature;BME280_humidity;BME280_pressure;Samples;Min_cycle;Max_cycle;Signal;HPM_P1;HPM_P2
2022/11/14 00:02:07;;;;;;;47.67;26.10;;;7.50;99.90;;;;;;5114441;28;20172;-72
2022/11/14 00:04:32;;;;;;;43.20;25.30;;;7.50;99.90;;;;;;5096958;28;20227;-72
2022/11/14 00:06:58;;;;;;;42.63;25.50;;;7.50;99.90;;;;;;5118462;28;20596;-72
2022/11/14 00:09:27;;;;;;;43.00;26.87;;;7.50;99.90;;;;;;5117821;28;20194;-72
2022/11/14 00:11:53;;;;;;;43.17;25.27;;;7.50;99.90;;;;;;5117822;28;20167;-72
2022/11/14 00:14:19;;;;;;;38.15;25.02;;;7.50;99.90;;;;;;5117722;28;20191;-72
2022/11/14 00:16:45;;;;;;;45.30;26.00;;;7.50;99.90;;;;;;5117606;28;20221;-72
2022/11/14 00:19:11;;;;;;;34.50;24.60;;;7.50;99.90;;;;;;5117567;28;20491;-74
2022/11/14 00:21:37;;;;;;;36.80;24.38;;;7.40;99.90;;;;;;5117616;28;20411;-72
2022/11/14 00:24:03;;;;;;;38.23;25.40;;;7.40;99.90;;;;;;5117992;28;20184;-72
2022/11/14 00:26:29;;;;;;;36.97;24.65;;;7.40;99.90;;;;;;5117692;28;20224;-72
2022/11/14 00:28:55;;;;;;;34.30;23.83;;;7.30;99.90;;;;;;5118036;28;20255;-72
2022/11/14 00:31:21;;;;;;;34.30;23.10;;;7.30;99.90;;;;;;5117428;28;20426;-73
2022/11/14 00:33:46;;;;;;;35.10;23.57;;;7.30;99.90;;;;;;5099381;28;20183;-73
2022/11/14 00:36:12;;;;;;;36.80;21.80;;;7.30;99.90;;;;;;5117153;28;20237;-73
2022/11/14 00:38:38;;;;;;;37.90;23.00;;;7.30;99.90;;;;;;5099188;28;20180;-73
2022/11/14 00:41:04;;;;;;;34.23;23.30;;;7.20;99.90;;;;;;5098870;28;20872;-72
2022/11/14 00:43:30;;;;;;;30.23;20.37;;;7.20;99.90;;;;;;5117681;28;20485;-72
2022/11/14 00:45:55;;;;;;;30.30;20.80;;;7.20;99.90;;;;;;5117140;28;20187;-72
2022/11/14 00:48:21;;;;;;;32.90;21.37;;;7.10;99.90;;;;;;5117438;28;20183;-72
2022/11/14 00:50:46;;;;;;;39.87;22.53;;;7.10;99.90;;;;;;5117084;28;20190;-72
2022/11/14 00:53:12;;;;;;;29.23;18.90;;;7.10;99.90;;;;;;5117399;28;20172;-72
2022/11/14 00:55:38;;;;;;;31.70;19.43;;;7.10;99.90;;;;;;5116926;28;20211;-72
2022/11/14 00:58:04;;;;;;;30.45;18.67;;;7.00;99.90;;;;;;5117193;28;20259;-72
2022/11/14 01:00:33;;;;;;;34.70;20.90;;;7.00;99.90;;;;;;5116919;28;20733;-72
2022/11/14 01:02:59;;;;;;;31.15;21.60;;;7.00;99.90;;;;;;5117110;28;20549;-72
2022/11/14 01:05:25;;;;;;;27.70;19.73;;;7.00;99.90;;;;;;5116762;28;20229;-72
2022/11/14 01:07:51;;;;;;;28.70;19.53;;;6.90;99.90;;;;;;5117009;28;20435;-72
2022/11/14 01:10:17;;;;;;;29.53;19.20;;;6.90;99.90;;;;;;5116634;28;20412;-72
2022/11/14 01:12:43;;;;;;;29.98;19.58;;;6.90;99.90;;;;;;5098755;28;20889;-71
2022/11/14 01:15:09;;;;;;;27.63;19.40;;;6.90;99.90;;;;;;5098164;28;20247;-72
2022/11/14 01:17:34;;;;;;;31.77;20.45;;;6.90;99.90;;;;;;5097733;28;20176;-74
2022/11/14 01:20:00;;;;;;;27.80;19.10;;;6.80;99.90;;;;;;5098243;28;20260;-72
2022/11/14 01:22:26;;;;;;;29.07;20.37;;;6.80;99.90;;;;;;5098256;28;20549;-72
2022/11/14 01:24:51;;;;;;;28.80;18.80;;;6.80;99.90;;;;;;5116257;28;20238;-72
2022/11/14 01:27:17;;;;;;;26.40;17.23;;;6.80;99.90;;;;;;5116494;28;20263;-72
2022/11/14 01:29:43;;;;;;;27.53;18.97;;;6.70;99.90;;;;;;5116213;28;20188;-72
2022/11/14 01:32:09;;;;;;;30.17;20.20;;;6.70;99.90;;;;;;5116122;28;20184;-72
2022/11/14 01:34:34;;;;;;;27.60;19.13;;;6.70;99.90;;;;;;5116268;28;20184;-72
2022/11/14 01:37:00;;;;;;;33.90;20.67;;;6.70;99.90;;;;;;5097944;28;20409;-72
2022/11/14 01:39:26;;;;;;;33.20;19.27;;;6.60;99.90;;;;;;5097823;28;20324;-72
2022/11/14 01:41:52;;;;;;;30.95;18.65;;;6.60;99.90;;;;;;5116112;28;20164;-72
2022/11/14 01:44:42;;;;;;;29.77;18.90;;;6.60;99.90;;;;;;5116026;28;20648;-72
2022/11/14 01:47:10;;;;;;;28.67;18.73;;;6.60;99.90;;;;;;5116170;28;20182;-72
2022/11/14 01:49:45;;;;;;;26.95;17.55;;;6.60;99.90;;;;;;5115999;28;20206;-72
2022/11/14 01:52:21;;;;;;;29.52;18.45;;;6.50;99.90;;;;;;5097502;28;20180;-72
2022/11/14 01:54:51;;;;;;;29.52;19.67;;;6.50;99.90;;;;;;5097609;28;20191;-74
2022/11/14 01:57:27;;;;;;;28.27;18.90;;;6.50;99.90;;;;;;5115921;28;20246;-72
2022/11/14 01:59:55;;;;;;;29.98;17.63;;;6.40;99.90;;;;;;5097427;28;20207;-72
2022/11/14 02:02:24;;;;;;;27.40;17.90;;;6.50;99.90;;;;;;5097372;28;20187;-72
2022/11/14 02:05:05;;;;;;;26.23;16.30;;;6.40;99.90;;;;;;5097383;28;20236;-72
2022/11/14 02:07:35;;;;;;;27.42;17.23;;;6.40;99.90;;;;;;5097274;28;20215;-72
2022/11/14 02:10:04;;;;;;;28.73;17.88;;;6.30;99.90;;;;;;5097198;28;20680;-72
2022/11/14 02:12:30;;;;;;;28.05;18.05;;;6.30;99.90;;;;;;5097258;28;20270;-72
2022/11/14 02:14:58;;;;;;;29.55;16.70;;;6.20;99.90;;;;;;5115336;28;20256;-72
2022/11/14 02:17:24;;;;;;;27.65;16.40;;;6.20;99.90;;;;;;5097065;28;20259;-72
2022/11/14 02:19:56;;;;;;;23.95;16.85;;;6.20;99.90;;;;;;5097065;28;20290;-74
2022/11/14 02:22:22;;;;;;;24.52;17.40;;;6.10;99.90;;;;;;5115497;28;20251;-72
2022/11/14 02:24:48;;;;;;;30.90;17.83;;;6.10;99.90;;;;;;5115062;28;20263;-72
2022/11/14 02:27:14;;;;;;;26.70;17.90;;;6.00;99.90;;;;;;5096612;28;20424;-72
2022/11/14 02:29:40;;;;;;;26.35;17.70;;;6.00;99.90;;;;;;5114733;28;20713;-72
2022/11/14 02:32:06;;;;;;;29.70;18.77;;;6.00;99.90;;;;;;5115171;28;20266;-72
2022/11/14 02:34:31;;;;;;;24.43;16.40;;;5.90;99.90;;;;;;5096660;28;20440;-72
2022/11/14 02:36:57;;;;;;;26.20;17.40;;;5.90;99.90;;;;;;5114991;28;20207;-73
2022/11/14 02:39:23;;;;;;;29.57;17.97;;;5.90;99.90;;;;;;5114919;28;20218;-72
2022/11/14 02:41:50;;;;;;;27.73;18.00;;;5.90;99.90;;;;;;5114935;28;20164;-72
2022/11/14 02:44:16;;;;;;;25.00;17.70;;;5.90;99.90;;;;;;5096563;28;20406;-72
2022/11/14 02:46:42;;;;;;;28.67;18.77;;;5.90;99.90;;;;;;5114860;28;20198;-72
2022/11/14 02:49:07;;;;;;;27.50;17.63;;;5.90;99.90;;;;;;5115216;28;20176;-72
2022/11/14 02:51:33;;;;;;;28.93;18.27;;;5.80;99.90;;;;;;5114874;28;20172;-72
2022/11/14 02:53:58;;;;;;;27.00;17.63;;;5.80;99.90;;;;;;5096826;28;20184;-72
2022/11/14 02:56:24;;;;;;;26.97;17.77;;;5.90;99.90;;;;;;5114899;28;20203;-72
2022/11/14 02:58:50;;;;;;;27.80;18.45;;;5.80;99.90;;;;;;5096573;28;20210;-72
2022/11/14 03:01:15;;;;;;;33.83;18.23;;;5.80;99.90;;;;;;5096198;28;20191;-72
2022/11/14 03:03:41;;;;;;;34.27;18.67;;;5.90;99.90;;;;;;5096248;28;20213;-72
2022/11/14 03:06:07;;;;;;;30.40;19.40;;;5.80;99.90;;;;;;5096241;28;20191;-72
2022/11/14 03:08:32;;;;;;;31.43;19.77;;;5.80;99.90;;;;;;5096296;28;20180;-72
2022/11/14 03:11:09;;;;;;;29.70;19.80;;;5.90;99.90;;;;;;5114374;28;20191;-72
2022/11/14 03:13:35;;;;;;;28.00;17.45;;;5.90;99.90;;;;;;5115034;28;20186;-72
2022/11/14 03:16:08;;;;;;;31.83;19.00;;;5.90;99.90;;;;;;5096010;28;20260;-73
2022/11/14 03:18:34;;;;;;;28.30;18.02;;;5.90;99.90;;;;;;5114983;28;20617;-72
2022/11/14 03:21:11;;;;;;;31.13;19.80;;;5.90;99.90;;;;;;5114286;28;20194;-72
2022/11/14 03:23:38;;;;;;;29.02;18.25;;;5.90;99.90;;;;;;5114786;28;20228;-73
2022/11/14 03:26:06;;;;;;;35.33;19.33;;;6.00;99.90;;;;;;5096030;28;20247;-72
2022/11/14 03:28:32;;;;;;;33.30;19.65;;;6.00;99.90;;;;;;5114619;28;20633;-72
2022/11/14 03:30:57;;;;;;;27.90;18.03;;;6.00;99.90;;;;;;5114213;28;20194;-72
2022/11/14 03:33:23;;;;;;;28.43;18.50;;;6.00;99.90;;;;;;5114094;28;20206;-72
2022/11/14 03:35:49;;;;;;;25.80;18.13;;;6.00;99.90;;;;;;5095922;28;20211;-72
2022/11/14 03:38:16;;;;;;;32.95;19.00;;;6.00;99.90;;;;;;5095683;28;20199;-72
2022/11/14 03:40:42;;;;;;;31.50;18.92;;;6.00;99.90;;;;;;5101968;28;20558;-72
2022/11/14 03:43:08;;;;;;;29.48;18.88;;;6.00;99.90;;;;;;5121207;28;20640;-72
2022/11/14 03:45:36;;;;;;;27.37;18.17;;;6.00;99.90;;;;;;5102534;28;20216;-72
2022/11/14 03:48:02;;;;;;;27.98;17.25;;;6.00;99.90;;;;;;5121115;28;20472;-72
2022/11/14 03:50:27;;;;;;;27.47;17.30;;;6.00;99.90;;;;;;5102529;28;20274;-72
2022/11/14 03:52:53;;;;;;;31.33;17.03;;;6.00;99.90;;;;;;5102673;28;20415;-72
2022/11/14 03:55:19;;;;;;;28.67;18.10;;;6.00;99.90;;;;;;5120653;28;20288;-72
2022/11/14 03:57:44;;;;;;;37.93;17.57;;;6.00;99.90;;;;;;5102491;28;20240;-72
2022/11/14 04:00:10;;;;;;;31.60;17.83;;;6.00;99.90;;;;;;5102321;28;20199;-72
2022/11/14 04:02:36;;;;;;;33.85;18.73;;;6.00;99.90;;;;;;5102498;28;20525;-72
2022/11/14 04:05:02;;;;;;;25.53;17.07;;;6.00;99.90;;;;;;5120698;28;20194;-72
2022/11/14 04:07:27;;;;;;;30.13;18.30;;;5.90;99.90;;;;;;5120827;28;20203;-72
2022/11/14 04:09:53;;;;;;;26.43;17.03;;;5.90;99.90;;;;;;5102297;28;20423;-72
2022/11/14 04:12:18;;;;;;;25.73;17.17;;;5.90;99.90;;;;;;5120733;28;20180;-72
2022/11/14 04:14:44;;;;;;;32.00;17.63;;;5.90;99.90;;;;;;5102144;28;20194;-72
2022/11/14 04:17:10;;;;;;;30.60;19.10;;;5.90;99.90;;;;;;5120691;28;20592;-72
2022/11/14 04:19:35;;;;;;;30.37;20.27;;;6.00;99.90;;;;;;5120496;28;20553;-72
2022/11/14 04:22:01;;;;;;;35.57;20.30;;;6.00;99.90;;;;;;5102247;28;20167;-72
2022/11/14 04:24:27;;;;;;;28.25;17.85;;;6.10;99.90;;;;;;5120250;28;20191;-72
2022/11/14 04:26:53;;;;;;;27.53;16.73;;;6.10;99.90;;;;;;5120498;28;20176;-72
2022/11/14 04:29:18;;;;;;;25.97;16.97;;;6.20;99.90;;;;;;5120468;28;20202;-72
2022/11/14 04:31:44;;;;;;;27.67;16.70;;;6.20;99.90;;;;;;5120499;28;20249;-72
2022/11/14 04:34:10;;;;;;;33.80;18.00;;;6.30;99.90;;;;;;5120332;28;20538;-72
2022/11/14 04:36:36;;;;;;;27.00;16.03;;;6.30;99.90;;;;;;5120360;28;20207;-72
2022/11/14 04:39:01;;;;;;;24.63;17.30;;;6.40;99.90;;;;;;5120241;28;20473;-72
2022/11/14 04:41:27;;;;;;;27.30;17.43;;;6.40;99.90;;;;;;5120360;28;20224;-72
2022/11/14 04:43:53;;;;;;;30.47;16.77;;;6.40;99.90;;;;;;5120781;28;20446;-71
2022/11/14 04:46:18;;;;;;;23.40;14.67;;;6.50;99.90;;;;;;5120311;28;20191;-72
2022/11/14 04:48:44;;;;;;;22.90;15.10;;;6.50;99.90;;;;;;5120744;28;20263;-72
2022/11/14 04:51:09;;;;;;;23.43;15.60;;;6.50;99.90;;;;;;5099252;28;20202;-72
2022/11/14 04:53:35;;;;;;;25.33;16.47;;;6.50;99.90;;;;;;5099000;28;20250;-72
2022/11/14 04:56:01;;;;;;;30.47;15.80;;;6.60;99.90;;;;;;5116863;28;20676;-72
2022/11/14 04:58:26;;;;;;;30.07;17.17;;;6.60;99.90;;;;;;5098667;28;20186;-72
2022/11/14 05:00:52;;;;;;;30.90;17.40;;;6.60;99.90;;;;;;5098391;28;20219;-72
2022/11/14 05:03:18;;;;;;;31.20;17.57;;;6.60;99.90;;;;;;5098692;28;20176;-71
2022/11/14 05:05:43;;;;;;;27.47;16.40;;;6.70;99.90;;;;;;5115700;28;20195;-72
2022/11/14 05:08:09;;;;;;;29.07;17.87;;;6.70;99.90;;;;;;5116730;28;20183;-72
2022/11/14 05:10:35;;;;;;;28.77;17.30;;;6.80;99.90;;;;;;5098357;28;20731;-72
2022/11/14 05:13:00;;;;;;;32.60;17.87;;;6.80;99.90;;;;;;5116850;28;20558;-72
2022/11/14 05:15:26;;;;;;;34.00;17.47;;;6.80;99.90;;;;;;5098054;28;20207;-73
2022/11/14 05:17:52;;;;;;;31.37;17.50;;;6.80;99.90;;;;;;5116320;28;20183;-72
2022/11/14 05:20:17;;;;;;;32.57;17.67;;;6.80;99.90;;;;;;5098079;28;20825;-72
2022/11/14 05:22:43;;;;;;;30.33;19.00;;;6.90;99.90;;;;;;5098382;28;20187;-72
2022/11/14 05:25:09;;;;;;;26.10;15.73;;;6.90;99.90;;;;;;5097809;28;20590;-74
2022/11/14 05:27:35;;;;;;;30.23;17.57;;;6.90;99.90;;;;;;5098216;28;20590;-72
2022/11/14 05:30:00;;;;;;;32.30;16.90;;;6.90;99.90;;;;;;5098035;28;20435;-72
2022/11/14 05:32:26;;;;;;;37.53;17.87;;;6.90;99.90;;;;;;5098125;28;20231;-73
2022/11/14 05:34:52;;;;;;;33.23;17.20;;;6.90;99.90;;;;;;5115806;28;20203;-73
2022/11/14 05:37:17;;;;;;;26.80;17.20;;;6.90;99.90;;;;;;5097944;28;20183;-72
2022/11/14 05:39:43;;;;;;;24.50;16.03;;;7.00;99.90;;;;;;5115224;28;20412;-73
2022/11/14 05:42:09;;;;;;;27.03;16.40;;;7.00;99.90;;;;;;5097506;28;20183;-72
2022/11/14 05:44:34;;;;;;;36.63;19.20;;;7.00;99.90;;;;;;5115978;28;20674;-72
2022/11/14 05:47:00;;;;;;;31.30;17.30;;;7.00;99.90;;;;;;5097392;28;20660;-72
2022/11/14 05:49:26;;;;;;;27.73;17.10;;;7.00;99.90;;;;;;5096857;28;20479;-72
2022/11/14 05:51:51;;;;;;;26.60;17.80;;;7.00;99.90;;;;;;5115284;28;20168;-72
2022/11/14 05:54:17;;;;;;;22.27;15.90;;;7.10;99.90;;;;;;5115862;28;20172;-72
2022/11/14 05:56:43;;;;;;;26.23;15.57;;;7.10;99.90;;;;;;5106589;28;20216;-73
2022/11/14 05:59:08;;;;;;;31.93;16.83;;;7.10;99.90;;;;;;5097464;28;20568;-72
2022/11/14 06:01:34;;;;;;;32.87;17.53;;;7.10;99.90;;;;;;5115884;28;20168;-73
2022/11/14 06:04:00;;;;;;;26.03;17.67;;;7.10;99.90;;;;;;5097411;28;20282;-72
2022/11/14 06:06:25;;;;;;;35.30;17.63;;;7.00;99.90;;;;;;5115591;28;20375;-72
2022/11/14 06:08:52;;;;;;;34.70;18.20;;;7.00;99.90;;;;;;5097521;28;20548;-73
2022/11/14 06:11:19;;;;;;;29.83;17.10;;;7.00;99.90;;;;;;5097281;28;20410;-72
2022/11/14 06:13:45;;;;;;;30.42;18.75;;;6.90;99.90;;;;;;5097046;28;20212;-72
2022/11/14 06:16:17;;;;;;;32.97;19.48;;;7.00;99.90;;;;;;5095768;28;20210;-72
2022/11/14 06:18:43;;;;;;;27.50;17.80;;;6.90;99.90;;;;;;5114708;28;20184;-72
2022/11/14 06:21:15;;;;;;;30.83;18.70;;;6.90;99.90;;;;;;5113050;28;20542;-73
2022/11/14 06:23:41;;;;;;;26.80;18.30;;;6.80;99.90;;;;;;5094415;28;20172;-72
2022/11/14 06:26:15;;;;;;;27.92;17.27;;;6.80;99.90;;;;;;5090878;28;20243;-72
2022/11/14 06:28:41;;;;;;;28.73;18.77;;;6.80;99.90;;;;;;5089155;28;20546;-72
2022/11/14 06:31:06;;;;;;;33.00;19.80;;;6.70;99.90;;;;;;5092858;28;20248;-72
2022/11/14 06:33:34;;;;;;;33.63;18.40;;;6.70;99.90;;;;;;5093186;28;20547;-72
2022/11/14 06:36:02;;;;;;;33.25;20.00;;;6.70;99.90;;;;;;5111430;28;20471;-73
2022/11/14 06:38:30;;;;;;;31.08;17.90;;;6.70;99.90;;;;;;5111676;28;20262;-72
2022/11/14 06:41:10;;;;;;;26.63;18.15;;;6.70;99.90;;;;;;5111949;28;20192;-72
2022/11/14 06:43:37;;;;;;;33.83;16.63;;;6.70;99.90;;;;;;5115261;28;20626;-72
2022/11/14 06:46:04;;;;;;;29.95;15.95;;;6.70;99.90;;;;;;5096368;28;20276;-72
2022/11/14 06:48:30;;;;;;;35.92;17.95;;;6.70;99.90;;;;;;5096108;28;20191;-72
2022/11/14 06:50:57;;;;;;;29.53;17.23;;;6.70;99.90;;;;;;5092846;28;20283;-72
2022/11/14 06:53:24;;;;;;;28.25;17.33;;;6.70;99.90;;;;;;5095591;28;20493;-72
2022/11/14 06:55:58;;;;;;;28.75;17.90;;;6.70;99.90;;;;;;5102381;28;20228;-72
2022/11/14 06:58:40;;;;;;;26.17;16.50;;;6.70;99.90;;;;;;5108071;28;20181;-72
2022/11/14 07:01:17;;;;;;;24.15;16.52;;;6.70;99.90;;;;;;5092053;28;20216;-72
2022/11/14 07:03:44;;;;;;;27.08;17.42;;;6.70;99.90;;;;;;5106992;28;20289;-73
2022/11/14 07:06:14;;;;;;;33.70;18.08;;;6.70;99.90;;;;;;5106371;28;20712;-72
2022/11/14 07:08:40;;;;;;;29.85;17.55;;;6.70;99.90;;;;;;5104905;28;20184;-72
2022/11/14 07:11:11;;;;;;;28.13;18.90;;;6.80;99.90;;;;;;5102582;28;20192;-73
2022/11/14 07:13:37;;;;;;;28.88;18.98;;;6.80;99.90;;;;;;5091417;28;20782;-72
2022/11/14 07:16:04;;;;;;;29.60;17.80;;;6.80;99.90;;;;;;5089527;28;20211;-72
2022/11/14 07:18:31;;;;;;;33.53;17.08;;;6.80;99.90;;;;;;5097737;28;20680;-72
2022/11/14 07:21:02;;;;;;;32.97;17.80;;;6.80;99.90;;;;;;5110293;28;20195;-72
2022/11/14 07:23:29;;;;;;;25.27;17.23;;;6.80;99.90;;;;;;5090584;28;20683;-73
2022/11/14 07:25:54;;;;;;;32.20;16.98;;;6.90;99.90;;;;;;5096534;28;20710;-73
2022/11/14 07:28:21;;;;;;;27.80;17.42;;;6.90;99.90;;;;;;5106322;28;20306;-72
2022/11/14 07:30:47;;;;;;;24.80;15.80;;;6.90;99.90;;;;;;5102378;28;20614;-72
2022/11/14 07:33:12;;;;;;;31.47;18.17;;;6.90;99.90;;;;;;5099944;28;20213;-72
2022/11/14 07:35:39;;;;;;;35.10;18.20;;;6.90;99.90;;;;;;5100727;28;20294;-72
2022/11/14 07:38:04;;;;;;;28.67;18.65;;;6.90;99.90;;;;;;5094475;28;20179;-72
2022/11/14 07:40:30;;;;;;;31.13;18.57;;;6.90;99.90;;;;;;5098945;28;20211;-72
2022/11/14 07:42:59;;;;;;;31.00;19.13;;;6.90;99.90;;;;;;5105056;28;20679;-73
2022/11/14 07:45:26;;;;;;;27.00;16.42;;;7.00;99.90;;;;;;5103852;28;20204;-72
2022/11/14 07:47:57;;;;;;;30.67;18.55;;;7.00;99.90;;;;;;5084289;28;20176;-72
2022/11/14 07:50:24;;;;;;;28.55;19.35;;;7.00;99.90;;;;;;5091704;28;20284;-72
2022/11/14 07:52:53;;;;;;;29.45;17.55;;;7.10;99.90;;;;;;5087626;28;20176;-73
2022/11/14 07:55:19;;;;;;;30.10;18.92;;;7.10;99.90;;;;;;5088534;28;20204;-73
2022/11/14 07:57:45;;;;;;;26.23;17.20;;;7.10;99.90;;;;;;5086970;28;20184;-73
2022/11/14 08:00:12;;;;;;;32.17;17.45;;;7.10;99.90;;;;;;5108892;28;20768;-72
2022/11/14 08:02:38;;;;;;;25.98;16.15;;;7.10;99.90;;;;;;5093014;28;20232;-72
2022/11/14 08:05:04;;;;;;;24.80;16.20;;;7.20;99.90;;;;;;5103317;28;20196;-72
2022/11/14 08:07:30;;;;;;;25.33;16.60;;;7.20;99.90;;;;;;5110071;28;20281;-72
2022/11/14 08:09:56;;;;;;;29.27;18.20;;;7.20;99.90;;;;;;5100690;28;20808;-72
2022/11/14 08:12:22;;;;;;;26.73;17.30;;;7.20;99.90;;;;;;5089380;28;20213;-72
2022/11/14 08:14:47;;;;;;;26.70;17.70;;;7.20;99.90;;;;;;5091945;28;20283;-72
2022/11/14 08:17:13;;;;;;;23.73;16.43;;;7.30;99.90;;;;;;5106694;28;20181;-72
2022/11/14 08:19:38;;;;;;;29.80;17.60;;;7.30;99.90;;;;;;5103898;28;20184;-72
2022/11/14 08:22:06;;;;;;;32.83;19.73;;;7.30;99.90;;;;;;5108347;28;20204;-72
2022/11/14 08:24:31;;;;;;;27.67;17.58;;;7.40;99.90;;;;;;5091936;28;20192;-72
2022/11/14 08:26:57;;;;;;;24.90;16.93;;;7.40;99.90;;;;;;5096219;28;20171;-73
2022/11/14 08:29:22;;;;;;;30.00;19.33;;;7.40;99.90;;;;;;5111498;28;20189;-73
2022/11/14 08:31:48;;;;;;;29.87;19.90;;;7.50;99.90;;;;;;5113167;28;20575;-74
2022/11/14 08:34:14;;;;;;;28.90;17.48;;;7.50;99.90;;;;;;5097407;28;20196;-73
2022/11/14 08:36:40;;;;;;;25.00;17.90;;;7.50;99.90;;;;;;5097508;28;20684;-73
2022/11/14 08:39:05;;;;;;;29.63;17.57;;;7.60;99.90;;;;;;5114527;28;20188;-74
2022/11/14 08:41:31;;;;;;;27.70;17.90;;;7.60;99.90;;;;;;5094001;28;20173;-73
2022/11/14 08:43:56;;;;;;;27.33;17.73;;;7.70;99.90;;;;;;5109279;28;20194;-74
2022/11/14 08:46:22;;;;;;;26.23;16.93;;;7.70;99.90;;;;;;5103511;28;20767;-74
2022/11/14 08:48:48;;;;;;;28.97;16.77;;;7.70;99.90;;;;;;5094691;28;20195;-74
2022/11/14 08:51:13;;;;;;;27.23;18.57;;;7.70;99.90;;;;;;5072328;28;20200;-73
2022/11/14 08:53:39;;;;;;;30.03;19.30;;;7.70;99.90;;;;;;5111120;28;20233;-73
2022/11/14 08:56:05;;;;;;;27.77;17.00;;;7.80;99.90;;;;;;5091424;28;20826;-73
2022/11/14 08:58:32;;;;;;;29.77;17.90;;;7.80;99.90;;;;;;5091643;28;20187;-74
2022/11/14 09:01:02;;;;;;;27.23;18.60;;;7.80;99.90;;;;;;5111118;28;20232;-73
2022/11/14 09:03:27;;;;;;;29.17;18.83;;;7.90;99.90;;;;;;5110999;28;20279;-73
2022/11/14 09:05:53;;;;;;;29.20;18.87;;;7.90;99.90;;;;;;5112898;28;20704;-74
2022/11/14 09:08:19;;;;;;;32.37;19.67;;;8.00;99.90;;;;;;5111415;28;20629;-73
2022/11/14 09:10:45;;;;;;;30.33;20.50;;;8.00;99.90;;;;;;5110785;28;20219;-74
2022/11/14 09:13:10;;;;;;;27.80;18.43;;;8.10;99.90;;;;;;5110801;28;20758;-73
2022/11/14 09:15:36;;;;;;;29.07;17.37;;;8.10;99.90;;;;;;5090592;28;20294;-73
2022/11/14 09:18:12;;;;;;;30.20;17.20;;;8.20;99.90;;;;;;5092080;28;20213;-73
2022/11/14 09:20:38;;;;;;;27.13;16.73;;;8.20;99.90;;;;;;5090851;28;20235;-74
2022/11/14 09:23:04;;;;;;;28.03;17.50;;;8.30;99.90;;;;;;5112115;28;20210;-73
2022/11/14 09:25:33;;;;;;;28.35;17.70;;;8.30;99.90;;;;;;5095309;28;20444;-73
2022/11/14 09:28:04;;;;;;;25.85;17.10;;;8.30;99.90;;;;;;5092711;28;20263;-73
2022/11/14 09:30:29;;;;;;;28.45;17.83;;;8.40;99.90;;;;;;5107999;28;20378;-74
2022/11/14 09:33:00;;;;;;;28.30;18.27;;;8.40;99.90;;;;;;5113095;28;20697;-73
2022/11/14 09:35:26;;;;;;;26.75;18.15;;;8.50;99.90;;;;;;5095027;28;20224;-73
2022/11/14 09:38:03;;;;;;;28.02;17.48;;;8.70;99.90;;;;;;5089854;28;20201;-73
2022/11/14 09:40:37;;;;;;;27.70;18.55;;;8.80;99.90;;;;;;5092591;28;20203;-74
2022/11/14 09:43:23;;;;;;;26.48;17.60;;;8.90;99.90;;;;;;5111941;28;20184;-73
2022/11/14 09:45:51;;;;;;;25.70;17.25;;;9.00;99.90;;;;;;5093295;28;20206;-73
2022/11/14 09:48:26;;;;;;;28.67;17.73;;;9.10;99.90;;;;;;5094301;28;20180;-74
2022/11/14 09:51:20;;;;;;;24.50;17.02;;;9.20;99.90;;;;;;5112582;28;20712;-73
2022/11/14 09:53:58;;;;;;;25.73;17.60;;;9.30;99.90;;;;;;5109852;28;20514;-74
2022/11/14 09:56:25;;;;;;;30.92;18.08;;;9.40;99.90;;;;;;5106909;28;20222;-75
2022/11/14 09:58:52;;;;;;;28.00;19.23;;;9.50;99.90;;;;;;5092093;28;20190;-74
2022/11/14 10:01:56;;;;;;;33.28;21.30;;;9.60;99.90;;;;;;5093532;28;20202;-74
2022/11/14 10:04:51;;;;;;;35.42;23.48;;;9.80;99.90;;;;;;5098311;28;20219;-74
2022/11/14 10:07:20;;;;;;;29.25;18.70;;;9.90;99.90;;;;;;5079593;28;20205;-73
2022/11/14 10:10:04;;;;;;;30.60;19.60;;;9.90;99.90;;;;;;5094891;28;20213;-74
2022/11/14 10:12:52;;;;;;;27.77;19.42;;;9.90;99.90;;;;;;5091175;28;20655;-73
2022/11/14 10:15:44;;;;;;;31.27;21.13;;;10.00;99.90;;;;;;5110016;28;20277;-73
2022/11/14 10:18:16;;;;;;;26.95;18.13;;;10.00;99.90;;;;;;5097053;28;20194;-74
2022/11/14 10:20:53;;;;;;;27.77;17.90;;;9.90;99.90;;;;;;5090683;28;20253;-75
2022/11/14 10:23:47;;;;;;;27.27;19.10;;;9.90;99.90;;;;;;5104762;28;20728;-74
2022/11/14 10:26:28;;;;;;;27.25;18.35;;;9.90;99.90;;;;;;5066200;28;20228;-73
2022/11/14 10:29:00;;;;;;;30.83;20.95;;;10.00;99.90;;;;;;5090047;28;20190;-73
2022/11/14 10:31:41;;;;;;;33.08;21.17;;;10.00;99.90;;;;;;5079048;28;20487;-73
2022/11/14 10:34:13;;;;;;;27.23;18.00;;;10.10;99.90;;;;;;5081838;28;20187;-73
2022/11/14 10:37:01;;;;;;;28.98;18.02;;;10.30;99.90;;;;;;5078817;28;20203;-73
2022/11/14 10:39:53;;;;;;;31.02;18.88;;;10.50;99.90;;;;;;5087150;28;20275;-74
2022/11/14 10:42:39;;;;;;;27.52;18.20;;;10.60;99.90;;;;;;5096082;28;20236;-73
2022/11/14 10:45:28;;;;;;;28.48;18.33;;;10.70;99.90;;;;;;5098761;28;20206;-74
2022/11/14 10:48:07;;;;;;;27.13;17.98;;;10.80;99.90;;;;;;5088593;28;20627;-74
2022/11/14 10:50:51;;;;;;;27.92;19.45;;;10.90;99.90;;;;;;5081363;28;20583;-74
2022/11/14 10:53:56;;;;;;;30.00;19.05;;;11.00;99.90;;;;;;5106482;28;20195;-74
2022/11/14 10:56:22;;;;;;;26.53;18.97;;;11.20;99.90;;;;;;5071408;28;20235;-73
2022/11/14 10:58:48;;;;;;;29.50;17.70;;;11.30;99.90;;;;;;5109819;28;20561;-73
2022/11/14 11:01:40;;;;;;;29.13;20.10;;;11.30;99.90;;;;;;5107038;28;20483;-74
2022/11/14 11:04:32;;;;;;;31.42;19.23;;;11.40;99.90;;;;;;5098578;28;20288;-75
2022/11/14 11:07:07;;;;;;;21.95;16.92;;;11.40;99.90;;;;;;5099761;28;20176;-73
2022/11/14 11:12:36;;;;;;;29.70;19.73;;;11.50;99.90;;;;;;5107351;28;20446;-73
2022/11/14 11:15:16;;;;;;;29.07;19.27;;;11.60;99.90;;;;;;5107012;28;20251;-74
2022/11/14 11:18:22;;;;;;;35.80;23.50;;;11.70;99.90;;;;;;5110571;28;20480;-74
2022/11/14 11:21:09;;;;;;;28.07;19.13;;;11.70;99.90;;;;;;5089668;28;20489;-74
2022/11/14 11:23:36;;;;;;;46.33;33.20;;;11.80;99.90;;;;;;5083675;28;20459;-74
2022/11/14 11:26:27;;;;;;;34.73;23.83;;;11.90;99.90;;;;;;5107212;28;20474;-74
2022/11/14 11:29:10;;;;;;;27.40;18.53;;;12.00;99.90;;;;;;5099330;28;20447;-74
2022/11/14 11:31:57;;;;;;;39.43;28.20;;;12.00;99.90;;;;;;5074448;28;20556;-73
2022/11/14 11:34:25;;;;;;;28.37;19.70;;;12.10;99.90;;;;;;5098788;28;20568;-74
2022/11/14 11:37:07;;;;;;;28.93;18.80;;;12.20;99.90;;;;;;5105494;28;20479;-74
2022/11/14 11:39:39;;;;;;;31.10;21.37;;;12.20;99.90;;;;;;5087367;28;21008;-74
2022/11/14 11:42:11;;;;;;;26.20;18.90;;;12.30;99.90;;;;;;5099094;28;20597;-74
2022/11/14 11:44:42;;;;;;;23.30;16.80;;;12.30;99.90;;;;;;5101899;28;20440;-73
2022/11/14 11:47:15;;;;;;;25.97;18.97;;;12.40;99.90;;;;;;5097507;28;20425;-74
2022/11/14 11:49:47;;;;;;;23.20;18.50;;;12.40;99.90;;;;;;5101814;28;20436;-74
2022/11/14 11:52:41;;;;;;;24.10;17.63;;;12.50;99.90;;;;;;5100442;28;20998;-74
2022/11/14 11:55:07;;;;;;;25.60;17.73;;;12.50;99.90;;;;;;5046204;28;20459;-74
2022/11/14 11:57:42;;;;;;;22.43;16.23;;;12.60;99.90;;;;;;5087892;28;20420;-74
2022/11/14 12:00:16;;;;;;;23.10;16.83;;;12.60;99.90;;;;;;5087565;28;20277;-74
2022/11/14 12:02:45;;;;;;;26.83;17.50;;;12.70;99.90;;;;;;5088092;28;20792;-74
2022/11/14 12:05:32;;;;;;;26.87;18.20;;;12.70;99.90;;;;;;5085317;28;20635;-73
2022/11/14 12:08:07;;;;;;;23.73;17.40;;;12.70;99.90;;;;;;5087428;28;20471;-73
2022/11/14 12:10:38;;;;;;;25.10;19.00;;;12.80;99.90;;;;;;5085930;28;20491;-74
2022/11/14 12:13:24;;;;;;;24.10;16.63;;;12.80;99.90;;;;;;5102251;28;20433;-74
2022/11/14 12:16:24;;;;;;;26.07;17.80;;;12.90;99.90;;;;;;5102098;28;20969;-73
2022/11/14 12:19:08;;;;;;;23.50;17.23;;;12.90;99.90;;;;;;5107026;28;20440;-73
2022/11/14 12:21:48;;;;;;;30.40;23.37;;;12.90;99.90;;;;;;5089000;28;20404;-74
2022/11/14 12:24:22;;;;;;;69.63;43.20;;;12.90;99.90;;;;;;5105989;28;20522;-74
2022/11/14 12:27:01;;;;;;;64.27;38.10;;;12.90;99.90;;;;;;5091911;28;20455;-74
2022/11/14 12:29:32;;;;;;;29.20;19.50;;;13.00;99.90;;;;;;5106240;28;20975;-74
2022/11/14 12:32:04;;;;;;;33.13;26.00;;;13.00;99.90;;;;;;5093386;28;20973;-74
2022/11/14 12:34:36;;;;;;;26.63;18.20;;;13.00;99.90;;;;;;5108720;28;21093;-74
2022/11/14 12:37:35;;;;;;;22.90;16.97;;;13.10;99.90;;;;;;5110855;28;20831;-74
2022/11/14 12:40:24;;;;;;;25.73;17.33;;;13.10;99.90;;;;;;5090369;28;20436;-74
2022/11/14 12:42:50;;;;;;;27.70;18.77;;;13.10;99.90;;;;;;5084005;28;21190;-74
2022/11/14 12:45:35;;;;;;;26.17;18.33;;;13.10;99.90;;;;;;5092956;28;20755;-73
2022/11/14 12:48:29;;;;;;;24.53;17.20;;;13.10;99.90;;;;;;5104348;28;20505;-73
2022/11/14 12:50:56;;;;;;;25.10;18.37;;;13.20;99.90;;;;;;5105665;28;20898;-74
2022/11/14 12:53:37;;;;;;;30.13;19.17;;;13.20;99.90;;;;;;5108040;27;20534;-74